Aeroporto :
LOGIN :

Iscrizione | Disclaimer

   EN    FR    IT 

 










Sommario :    VFR   VFR Marginale   IFR   IFR Intensivo   IFR Molto Intensivo
Visibilità : 
Base nubi : 
>= 8 km
>= 3000ft
5 / 8 km
1000 / 3000 ft
1500m / 5 km
500 / 1000 ft
800 / 1500m
200 / 500 ft
< 800m
< 200 ft
Simboli :   Temporali  Nebbia  Neve Forte  Precipitazioni Forti  Vento > 20 kt
SIGMETs :   Varie  Temporali  Ghiacco  Turbolenza  Onda orograficha  Ceneri Vulcaniche






- Altitudine del aeroporto : 586 ft
- Codice IATA : IEV


UKKK - Zhuliany

ULTIMO METAR :
  • 050330Z 19003MPS 120V240 CAVOK 13/11 Q1004 R26/70D NOSIG

METARs OBSOLETI :
  • 050300Z 17003MPS 130V210 CAVOK 14/11 Q1004 R26/CLRD70 NOSIG
  • 050230Z 17003MPS 140V200 CAVOK 13/11 Q1004 R26/CLRD70 NOSIG
  • 050200Z 16002MPS 120V210 CAVOK 12/10 Q1004 R26/70D NOSIG
  • 050130Z 20002MPS 150V230 CAVOK 11/09 Q1004 R26/CLRD70 NOSIG

TAF TAF UKKK
Valido dal 05 a 00 ore il 06 a 00 ore UTC


042303Z 0500/0524 19005G10MPS 9999 BKN020
TEMPO 0500/0509 17007G13MPS 2100 -SHRA BR BKN005 SCT015CB
PROB40
TEMPO 0500/0509 VRB10G17MPS 1500 TSRAGR SQ BKN004 BKN015CB
TEMPO 0509/0519 VRB10G18MPS 1200 TSRAGR SQ BKN006 BKN015CB
TEMPO 0519/0524 2100 -SHRA BR BKN006 SCT015CB



MetMap, La meteo Aeronautica in un colpo d'occhio ! - Copyright ORBIFLY Dicembre 2007 - Disclaimer

ORBIFLY MET'MAP TEAM :

Programmazione e sviluppo : Alexandra Zaïnal
Concezione : Baudouin d'Aumeries
Aiuto per la programmazione : Marc-Olivier Méhu
Supporto tecnico e logistico : Manuel Goepfert
Aiuto per la traduzione : Arnaldo La Scala

Contatto : metmap@orbifly.com




FONTI E CREDITI :

   NOAA